Time;durP1;ratioP1;P1;durP2;ratioP2;P2;SDS_P1;SDS_P2;PMS_P1;PMS_P2;Temp;Humidity;BMP_temperature;BMP_pressure;BME280_temperature;BME280_humidity;BME280_pressure;Samples;Min_cycle;Max_cycle;Signal;HPM_P1;HPM_P2
2021/08/14 00:01:58;;;;;;;5.28;2.67;;;;;;;16.88;70.58;101475.59;4936501;28;20058;-83
2021/08/14 00:04:24;;;;;;;5.32;2.28;;;;;;;16.87;71.13;101476.53;4938316;29;20532;-87
2021/08/14 00:06:52;;;;;;;3.60;2.75;;;;;;;16.87;71.05;101479.19;4909653;29;20047;-82
2021/08/14 00:09:19;;;;;;;3.90;2.40;;;;;;;16.88;70.53;101483.53;4923826;29;20090;-82
2021/08/14 00:11:45;;;;;;;6.10;2.67;;;;;;;16.84;70.80;101480.13;4924825;29;20139;-82
2021/08/14 00:14:12;;;;;;;6.60;2.65;;;;;;;16.83;70.76;101482.78;4926766;29;20474;-83
2021/08/14 00:16:39;;;;;;;3.22;2.20;;;;;;;16.83;70.62;101482.78;4948046;28;20039;-87
2021/08/14 00:19:06;;;;;;;6.53;2.30;;;;;;;16.82;70.56;101476.63;4928814;28;20047;-84
2021/08/14 00:21:32;;;;;;;5.78;2.53;;;;;;;16.83;70.42;101474.84;4941980;28;20055;-85
2021/08/14 00:23:59;;;;;;;5.50;2.22;;;;;;;16.84;70.02;101474.81;4960930;28;20051;-83
2021/08/14 00:26:26;;;;;;;5.03;2.28;;;;;;;16.85;69.91;101473.91;4924645;28;20105;-86
2021/08/14 00:28:52;;;;;;;6.65;2.53;;;;;;;16.85;69.28;101468.59;4940891;28;20067;-83
2021/08/14 00:31:19;;;;;;;5.43;2.65;;;;;;;16.81;69.61;101471.38;4941370;28;20144;-86
2021/08/14 00:33:46;;;;;;;8.35;3.60;;;;;;;16.77;69.32;101465.28;4941915;28;20061;-83
2021/08/14 00:36:12;;;;;;;2.78;2.00;;;;;;;16.75;69.49;101468.84;4943294;28;20074;-83
2021/08/14 00:38:39;;;;;;;4.07;2.65;;;;;;;16.70;69.56;101466.31;4926206;28;20054;-82
2021/08/14 00:41:05;;;;;;;4.40;2.38;;;;;;;16.67;69.88;101475.19;4939779;28;20066;-87
2021/08/14 00:43:32;;;;;;;4.68;2.17;;;;;;;16.70;69.64;101466.31;4925182;28;20047;-83
2021/08/14 00:45:59;;;;;;;4.68;2.78;;;;;;;16.70;69.43;101459.25;4955092;28;20051;-84
2021/08/14 00:48:27;;;;;;;4.05;1.90;;;;;;;16.69;69.34;101456.66;4938479;28;20070;-86
2021/08/14 00:50:53;;;;;;;4.05;2.47;;;;;;;16.63;69.50;101457.63;4941402;28;20055;-82
2021/08/14 00:53:21;;;;;;;6.32;2.95;;;;;;;16.58;69.69;101462.13;4940429;28;20047;-83
2021/08/14 00:55:48;;;;;;;5.32;3.00;;;;;;;16.54;69.81;101463.13;4937508;28;20102;-86
2021/08/14 00:58:15;;;;;;;4.70;2.22;;;;;;;16.50;70.22;101467.63;4939250;28;20054;-82
2021/08/14 01:00:43;;;;;;;5.45;2.03;;;;;;;16.45;70.14;101468.59;4940702;28;20126;-82
2021/08/14 01:03:11;;;;;;;7.03;2.47;;;;;;;16.41;70.45;101467.78;4939875;28;20114;-85
2021/08/14 01:05:41;;;;;;;5.68;2.92;;;;;;;16.36;70.60;101467.00;4939394;28;20081;-85
2021/08/14 01:08:07;;;;;;;5.28;2.55;;;;;;;16.33;70.89;101456.50;4953758;28;20047;-86
2021/08/14 01:10:35;;;;;;;6.18;2.47;;;;;;;16.26;71.12;101462.81;4942907;28;20050;-82
2021/08/14 01:13:01;;;;;;;4.75;2.28;;;;;;;16.24;71.30;101467.25;4939199;28;20145;-82
2021/08/14 01:15:29;;;;;;;4.25;1.92;;;;;;;16.20;71.74;101462.03;4937675;28;20118;-86
2021/08/14 01:17:59;;;;;;;5.97;2.92;;;;;;;16.20;71.71;101469.09;4936594;28;20679;-84
2021/08/14 01:20:26;;;;;;;4.13;1.63;;;;;;;16.17;71.59;101467.38;4920904;29;20505;-84
2021/08/14 01:22:53;;;;;;;4.38;2.30;;;;;;;16.13;71.97;101467.47;4926836;29;20051;-81
2021/08/14 01:25:22;;;;;;;5.53;2.30;;;;;;;16.07;72.30;101460.53;4934463;28;20059;-83
2021/08/14 01:27:49;;;;;;;5.28;2.10;;;;;;;16.06;72.45;101460.56;4937135;28;20039;-82
2021/08/14 01:30:16;;;;;;;5.38;1.85;;;;;;;16.03;72.29;101464.13;4921282;29;20047;-83
2021/08/14 01:32:42;;;;;;;4.43;1.92;;;;;;;15.99;72.87;101458.03;4939878;28;20046;-83
2021/08/14 01:35:10;;;;;;;7.32;2.33;;;;;;;15.95;73.00;101450.19;4912078;28;20054;-82
2021/08/14 01:37:36;;;;;;;3.53;2.00;;;;;;;15.93;73.21;101454.63;4906851;28;20047;-82
2021/08/14 01:40:04;;;;;;;3.58;1.90;;;;;;;15.93;73.24;101457.25;4941644;28;20061;-83
2021/08/14 01:42:31;;;;;;;3.97;2.25;;;;;;;15.91;73.43;101456.44;4938738;28;20047;-85
2021/08/14 01:44:57;;;;;;;4.35;2.05;;;;;;;15.90;73.75;101460.84;4923853;28;20058;-84
2021/08/14 01:47:24;;;;;;;3.92;1.73;;;;;;;15.91;73.53;101461.72;4936731;28;20165;-83
2021/08/14 01:49:50;;;;;;;4.95;1.85;;;;;;;15.85;73.68;101460.94;4941912;28;20047;-84
2021/08/14 01:52:18;;;;;;;8.13;2.20;;;;;;;15.80;73.96;101461.84;4942067;28;20042;-84
2021/08/14 01:54:48;;;;;;;5.53;2.45;;;;;;;15.77;74.30;101459.28;4940441;28;20075;-85
2021/08/14 01:57:17;;;;;;;4.00;2.42;;;;;;;15.74;74.37;101460.22;4940232;28;20042;-83
2021/08/14 01:59:43;;;;;;;4.13;2.50;;;;;;;15.71;74.58;101449.72;4927116;28;20058;-83
2021/08/14 02:02:11;;;;;;;4.78;2.20;;;;;;;15.70;74.68;101447.97;4957497;28;20053;-83
2021/08/14 02:04:37;;;;;;;2.80;2.10;;;;;;;15.66;75.14;101449.78;4943881;28;20062;-82
2021/08/14 02:07:04;;;;;;;5.40;2.25;;;;;;;15.64;75.08;101454.19;4939402;28;20051;-84
2021/08/14 02:09:31;;;;;;;5.97;2.58;;;;;;;15.62;75.29;101460.41;4927027;28;20486;-83
2021/08/14 02:11:57;;;;;;;9.93;2.63;;;;;;;15.57;75.24;101443.81;4942442;28;20065;-83
2021/08/14 02:14:24;;;;;;;4.90;2.00;;;;;;;15.53;75.49;101443.84;4943953;28;20101;-83
2021/08/14 02:16:51;;;;;;;5.47;2.00;;;;;;;15.49;75.52;101449.22;4941819;28;20047;-84
2021/08/14 02:19:18;;;;;;;5.55;2.25;;;;;;;15.46;75.58;101449.25;4923456;28;20434;-84
2021/08/14 02:21:45;;;;;;;2.10;1.75;;;;;;;15.41;76.26;101453.72;4924195;28;20055;-82
2021/08/14 02:24:11;;;;;;;4.53;2.15;;;;;;;15.38;76.47;101444.09;4921923;28;20051;-82
2021/08/14 02:26:38;;;;;;;6.03;2.90;;;;;;;15.38;76.49;101444.97;4921143;28;20047;-84
2021/08/14 02:29:04;;;;;;;4.97;2.28;;;;;;;15.35;76.34;101445.00;4922589;28;20047;-85
2021/08/14 02:31:31;;;;;;;10.40;5.15;;;;;;;15.33;76.68;101453.84;4922355;28;20154;-84
2021/08/14 02:33:58;;;;;;;5.50;3.25;;;;;;;15.29;76.94;101452.16;4912185;28;20074;-84
2021/08/14 02:36:24;;;;;;;9.10;2.90;;;;;;;15.26;77.23;101445.16;4935898;28;20875;-86
2021/08/14 02:38:51;;;;;;;8.93;3.00;;;;;;;15.25;77.29;101434.66;4925898;28;20127;-82
2021/08/14 02:41:18;;;;;;;4.82;2.38;;;;;;;15.23;77.13;101432.03;4925635;28;20061;-86
2021/08/14 02:43:44;;;;;;;5.53;2.72;;;;;;;15.19;77.57;101425.06;4927452;28;20047;-84
2021/08/14 02:46:15;;;;;;;6.68;2.63;;;;;;;15.14;77.63;101430.41;4919677;28;20051;-87
2021/08/14 02:48:42;;;;;;;6.22;2.83;;;;;;;15.13;77.83;101427.78;4941735;28;20101;-84
2021/08/14 02:51:08;;;;;;;5.15;3.20;;;;;;;15.10;78.32;101439.25;4955676;28;20059;-82
2021/08/14 02:53:35;;;;;;;8.27;3.40;;;;;;;15.10;78.42;101441.03;4954605;28;20082;-85
2021/08/14 02:56:01;;;;;;;6.60;2.88;;;;;;;15.06;78.59;101432.31;4969310;28;20046;-83
2021/08/14 02:58:28;;;;;;;7.97;3.55;;;;;;;15.04;78.70;101420.88;4940063;28;20058;-82
2021/08/14 03:00:55;;;;;;;7.20;2.97;;;;;;;15.05;79.15;101422.63;4955148;28;20530;-83
2021/08/14 03:03:22;;;;;;;6.00;2.88;;;;;;;15.08;79.13;101427.00;4940199;28;20133;-83
2021/08/14 03:05:48;;;;;;;5.18;2.75;;;;;;;15.10;78.89;101434.00;4955523;28;20572;-83
2021/08/14 03:08:15;;;;;;;5.55;3.03;;;;;;;15.07;78.93;101436.69;4954388;28;20069;-84
2021/08/14 03:10:42;;;;;;;6.13;2.75;;;;;;;15.00;79.05;101435.88;4954687;28;20089;-83
2021/08/14 03:13:12;;;;;;;9.70;2.67;;;;;;;14.93;79.68;101431.59;4970355;28;20050;-85
2021/08/14 03:15:39;;;;;;;6.70;2.80;;;;;;;14.91;80.45;101436.03;4955391;28;20043;-86
2021/08/14 03:18:11;;;;;;;4.57;2.85;;;;;;;14.88;80.05;101439.56;4953872;28;20046;-82
2021/08/14 03:20:38;;;;;;;4.53;2.72;;;;;;;14.89;80.18;101432.56;4953551;28;20086;-82
2021/08/14 03:23:05;;;;;;;6.85;2.40;;;;;;;14.94;80.71;101432.47;4954284;28;20050;-85
2021/08/14 03:25:31;;;;;;;4.78;2.25;;;;;;;15.04;80.04;101441.97;4956250;28;20072;-84
2021/08/14 03:27:58;;;;;;;3.28;2.22;;;;;;;15.16;79.37;101436.53;4954065;28;20047;-86
2021/08/14 03:30:25;;;;;;;2.13;1.90;;;;;;;15.27;79.02;101440.78;4969133;28;20046;-82
2021/08/14 03:32:52;;;;;;;5.90;2.47;;;;;;;15.33;78.73;101438.91;4939292;28;20998;-84
2021/08/14 03:35:19;;;;;;;7.63;2.95;;;;;;;15.39;78.44;101430.88;4952759;28;20071;-83
2021/08/14 03:37:46;;;;;;;8.63;2.90;;;;;;;15.43;78.27;101418.50;4953502;28;20764;-82
2021/08/14 03:40:13;;;;;;;8.95;3.35;;;;;;;15.45;77.96;101415.84;4954757;28;20061;-86
2021/08/14 03:42:40;;;;;;;4.80;1.92;;;;;;;15.47;77.96;101420.19;4958876;28;20063;-82
2021/08/14 03:45:07;;;;;;;6.82;2.25;;;;;;;15.50;77.86;101422.78;4956560;28;20047;-83
2021/08/14 03:47:33;;;;;;;9.23;3.13;;;;;;;15.51;77.47;101421.91;4938885;28;20055;-83
2021/08/14 03:50:00;;;;;;;5.90;2.30;;;;;;;15.52;77.55;101420.97;4924791;28;20039;-82
2021/08/14 03:52:26;;;;;;;8.07;2.15;;;;;;;15.53;77.54;101425.38;4957161;28;20070;-83
2021/08/14 03:54:53;;;;;;;4.35;2.15;;;;;;;15.59;77.48;101423.53;4942990;28;20043;-82
2021/08/14 03:57:19;;;;;;;6.70;2.72;;;;;;;15.62;77.22;101424.34;4939387;28;20051;-82
2021/08/14 03:59:46;;;;;;;4.15;1.90;;;;;;;15.61;77.21;101425.25;4939727;28;20133;-84
2021/08/14 04:02:12;;;;;;;6.60;2.30;;;;;;;15.59;77.36;101420.88;4942929;28;20129;-84
2021/08/14 04:04:39;;;;;;;4.78;2.50;;;;;;;15.59;77.37;101429.69;4939610;28;20051;-83
2021/08/14 04:07:05;;;;;;;4.25;2.58;;;;;;;15.60;77.42;101431.41;4939946;28;20050;-84
2021/08/14 04:09:32;;;;;;;6.40;1.90;;;;;;;15.58;77.46;101435.84;4940957;28;20046;-83
2021/08/14 04:11:58;;;;;;;4.55;2.00;;;;;;;15.58;77.38;101427.94;4926336;28;20070;-83
2021/08/14 04:14:25;;;;;;;3.50;2.20;;;;;;;15.58;77.42;101427.06;4956069;28;20584;-82
2021/08/14 04:16:51;;;;;;;3.38;1.88;;;;;;;15.59;77.21;101429.69;4937736;28;20054;-84
2021/08/14 04:19:18;;;;;;;10.43;3.17;;;;;;;15.65;77.43;101431.34;4939970;28;20105;-83
2021/08/14 04:21:45;;;;;;;5.05;2.08;;;;;;;15.70;77.13;101429.50;4960391;28;20277;-82
2021/08/14 04:24:12;;;;;;;5.78;2.05;;;;;;;15.75;76.87;101430.28;4960933;28;20096;-82
2021/08/14 04:26:38;;;;;;;8.15;1.95;;;;;;;15.79;76.77;101434.59;4959088;28;20385;-81
2021/08/14 04:29:05;;;;;;;5.70;2.05;;;;;;;15.81;76.66;101429.31;4945880;28;20062;-82
2021/08/14 04:31:31;;;;;;;7.47;2.42;;;;;;;15.82;76.70;101429.28;4957550;28;20657;-84
2021/08/14 04:33:58;;;;;;;1.75;1.35;;;;;;;15.84;76.46;101429.28;4960207;28;20046;-85
2021/08/14 04:36:25;;;;;;;5.70;2.33;;;;;;;15.85;76.42;101423.09;4945183;28;20054;-84
2021/08/14 04:38:51;;;;;;;7.63;1.77;;;;;;;15.86;76.52;101427.47;4946160;28;20113;-84
2021/08/14 04:41:18;;;;;;;6.75;2.20;;;;;;;15.88;76.54;101423.03;4978868;28;22938;-84
2021/08/14 04:43:44;;;;;;;6.53;2.38;;;;;;;15.91;76.48;101430.91;4959622;28;20072;-83
2021/08/14 04:46:11;;;;;;;2.95;1.98;;;;;;;15.92;76.43;101426.47;4959829;28;20081;-83
2021/08/14 04:48:38;;;;;;;5.13;1.98;;;;;;;15.93;76.32;101431.75;4975841;28;20462;-83
2021/08/14 04:51:04;;;;;;;3.97;2.28;;;;;;;15.96;76.27;101429.03;4944646;28;20068;-82
2021/08/14 04:53:31;;;;;;;5.35;2.58;;;;;;;15.99;76.14;101425.47;4962385;28;20061;-82
2021/08/14 04:56:00;;;;;;;5.82;1.98;;;;;;;16.03;76.12;101429.78;4975194;28;20129;-83
2021/08/14 04:58:26;;;;;;;7.38;2.47;;;;;;;16.06;76.04;101423.56;4972619;28;20050;-83
2021/08/14 05:00:53;;;;;;;7.13;1.80;;;;;;;16.08;75.87;101432.34;4971609;28;20043;-82
2021/08/14 05:03:19;;;;;;;4.68;1.90;;;;;;;16.10;75.52;101436.72;4940515;28;21456;-83
2021/08/14 05:05:47;;;;;;;7.65;2.17;;;;;;;16.12;75.83;101434.88;4944954;28;20071;-82
2021/08/14 05:08:14;;;;;;;3.65;1.58;;;;;;;16.14;75.61;101438.38;4945589;28;20051;-85
2021/08/14 05:10:40;;;;;;;4.60;2.03;;;;;;;16.16;75.44;101436.56;4944476;28;20059;-84
2021/08/14 05:13:07;;;;;;;5.72;2.20;;;;;;;16.19;75.30;101433.00;4928832;28;20071;-82
2021/08/14 05:15:34;;;;;;;7.38;2.22;;;;;;;16.18;75.30;101429.50;4927008;28;20066;-83
2021/08/14 05:18:00;;;;;;;5.50;2.05;;;;;;;16.21;75.06;101437.34;4957556;28;20057;-82
2021/08/14 05:20:27;;;;;;;5.25;2.20;;;;;;;16.21;75.08;101441.78;4946280;28;20525;-84
2021/08/14 05:22:53;;;;;;;5.88;2.42;;;;;;;16.20;74.98;101446.19;4945887;28;20140;-82
2021/08/14 05:25:20;;;;;;;5.03;1.88;;;;;;;16.15;75.07;101434.84;4959202;28;20082;-86
2021/08/14 05:27:46;;;;;;;3.15;1.88;;;;;;;16.17;75.03;101442.75;4959968;28;20043;-82
2021/08/14 05:30:14;;;;;;;6.43;2.15;;;;;;;16.19;75.51;101436.53;4960592;28;20077;-85
2021/08/14 05:32:40;;;;;;;6.20;2.25;;;;;;;16.28;74.60;101439.88;4975870;28;20053;-82
2021/08/14 05:35:08;;;;;;;8.35;2.08;;;;;;;16.37;74.25;101445.84;4959525;28;20417;-83
2021/08/14 05:37:37;;;;;;;3.10;1.48;;;;;;;16.45;73.80;101435.13;4959496;28;20124;-81
2021/08/14 05:40:04;;;;;;;6.57;2.20;;;;;;;16.52;73.45;101434.06;4958108;28;20441;-83
2021/08/14 05:42:31;;;;;;;4.38;2.35;;;;;;;16.57;73.00;101434.00;4978005;28;20074;-85
2021/08/14 05:44:58;;;;;;;6.03;2.10;;;;;;;16.57;73.00;101431.34;4959464;28;20054;-88
2021/08/14 05:47:25;;;;;;;5.35;1.98;;;;;;;16.61;72.87;101433.03;4959264;28;20081;-84
2021/08/14 05:49:51;;;;;;;10.38;2.10;;;;;;;16.60;72.99;101427.78;4957620;28;20093;-84
2021/08/14 05:52:18;;;;;;;5.45;2.08;;;;;;;16.59;73.01;101428.66;4956440;28;20948;-84
2021/08/14 05:54:45;;;;;;;6.45;2.40;;;;;;;16.55;72.96;101430.50;4939053;28;20162;-83
2021/08/14 05:57:12;;;;;;;5.85;2.05;;;;;;;16.52;73.38;101425.28;4938934;28;20466;-83
2021/08/14 05:59:38;;;;;;;5.78;2.00;;;;;;;16.49;73.14;101427.97;4940843;28;20049;-87
2021/08/14 06:02:05;;;;;;;7.38;3.03;;;;;;;16.49;73.33;101425.34;4954203;28;20079;-83
2021/08/14 06:04:31;;;;;;;6.20;2.22;;;;;;;16.52;73.15;101431.44;4939779;28;20050;-86
2021/08/14 06:06:58;;;;;;;6.00;1.83;;;;;;;16.60;72.79;101433.06;4928865;28;20058;-83
2021/08/14 06:09:25;;;;;;;8.50;2.97;;;;;;;16.70;72.32;101421.38;4940905;28;20038;-82
2021/08/14 06:11:52;;;;;;;8.13;2.70;;;;;;;16.84;71.64;101429.88;4956212;28;20042;-83
2021/08/14 06:14:19;;;;;;;4.18;2.50;;;;;;;17.00;70.68;101425.13;4940492;28;20058;-84
2021/08/14 06:16:45;;;;;;;4.43;1.33;;;;;;;17.17;70.15;101423.88;4924858;28;20110;-82
2021/08/14 06:19:12;;;;;;;6.97;2.28;;;;;;;17.33;69.20;101419.91;4941431;28;20074;-83
2021/08/14 06:21:41;;;;;;;6.32;1.83;;;;;;;17.42;68.67;101418.81;4926774;28;20051;-86
2021/08/14 06:24:08;;;;;;;8.13;3.05;;;;;;;17.46;68.42;101431.06;4939978;28;20133;-82
2021/08/14 06:26:35;;;;;;;11.13;3.13;;;;;;;17.48;68.26;101431.03;4925434;28;20063;-83
2021/08/14 06:29:01;;;;;;;8.27;2.60;;;;;;;17.46;68.39;101417.81;4956549;28;20049;-86
2021/08/14 06:31:28;;;;;;;7.97;2.72;;;;;;;17.50;68.54;101427.44;4955065;28;20047;-85
2021/08/14 06:33:55;;;;;;;3.00;2.30;;;;;;;17.57;68.11;101420.19;4954195;28;20050;-83
2021/08/14 06:36:25;;;;;;;5.22;2.65;;;;;;;17.68;67.92;101422.59;4941858;28;20732;-82
2021/08/14 06:38:52;;;;;;;5.97;2.20;;;;;;;17.80;67.34;101411.66;4953851;28;20518;-82
2021/08/14 06:41:18;;;;;;;7.38;2.63;;;;;;;17.98;67.03;101412.97;4956111;28;20055;-82
2021/08/14 06:43:45;;;;;;;5.32;1.77;;;;;;;18.23;66.28;101406.09;4956048;28;20053;-83
2021/08/14 06:46:11;;;;;;;5.93;1.92;;;;;;;18.56;64.21;101411.31;4924999;28;20105;-84
2021/08/14 06:48:38;;;;;;;3.05;1.77;;;;;;;18.88;63.61;101402.38;4955637;28;20046;-83
2021/08/14 06:51:05;;;;;;;5.85;1.85;;;;;;;19.23;62.36;101402.16;4932794;28;20078;-86
2021/08/14 06:53:32;;;;;;;9.25;2.88;;;;;;;19.51;60.57;101402.09;4970125;28;20121;-84
2021/08/14 06:55:58;;;;;;;5.47;2.40;;;;;;;19.79;60.47;101402.00;4953553;28;20888;-86
2021/08/14 06:58:25;;;;;;;7.97;1.88;;;;;;;20.08;59.15;101402.75;4970594;28;20408;-86
2021/08/14 07:00:51;;;;;;;6.40;2.13;;;;;;;20.31;58.41;101401.91;4953783;28;20043;-85
2021/08/14 07:03:18;;;;;;;4.55;3.08;;;;;;;20.45;57.26;101408.47;4954978;28;20055;-85
2021/08/14 07:05:44;;;;;;;6.57;1.85;;;;;;;20.58;56.78;101404.41;4970286;28;20516;-83
2021/08/14 07:08:11;;;;;;;5.80;2.75;;;;;;;20.66;55.88;101401.47;4955735;28;20066;-81
2021/08/14 07:10:38;;;;;;;3.88;1.95;;;;;;;20.73;55.48;101404.78;4956227;28;20134;-83
2021/08/14 07:13:04;;;;;;;5.43;1.95;;;;;;;20.75;55.50;101409.09;4957463;28;20058;-83
2021/08/14 07:15:31;;;;;;;6.63;2.45;;;;;;;20.71;54.83;101407.50;4943147;28;20046;-82
2021/08/14 07:17:58;;;;;;;6.70;2.58;;;;;;;20.64;55.46;101409.50;4960241;28;20054;-82
2021/08/14 07:20:25;;;;;;;8.05;2.97;;;;;;;20.69;55.05;101404.00;4960123;28;21008;-83
2021/08/14 07:22:52;;;;;;;4.53;2.30;;;;;;;20.78;54.96;101400.13;4977363;28;20042;-82
2021/08/14 07:25:19;;;;;;;7.25;2.20;;;;;;;20.87;54.74;101405.13;4976673;28;20093;-82
2021/08/14 07:27:45;;;;;;;5.50;1.35;;;;;;;21.02;54.08;101405.41;4975785;28;20063;-83
2021/08/14 07:30:13;;;;;;;4.70;2.13;;;;;;;20.99;53.90;101406.41;4975250;28;20047;-82
2021/08/14 07:32:39;;;;;;;6.95;2.65;;;;;;;21.03;53.96;101405.34;4943373;28;20047;-84
2021/08/14 07:35:07;;;;;;;4.88;1.67;;;;;;;21.07;53.52;101400.78;4944893;28;20061;-82
2021/08/14 07:37:33;;;;;;;5.75;2.15;;;;;;;20.93;53.58;101410.16;4976285;28;20042;-83
2021/08/14 07:40:00;;;;;;;6.90;1.95;;;;;;;20.82;54.17;101402.63;4959008;28;20051;-85
2021/08/14 07:42:27;;;;;;;3.97;2.20;;;;;;;20.95;54.14;101400.34;4977598;28;20050;-84
2021/08/14 07:44:55;;;;;;;6.10;1.98;;;;;;;21.32;53.30;101398.78;4945999;28;20098;-83
2021/08/14 07:47:21;;;;;;;5.05;2.50;;;;;;;21.60;52.74;101403.00;4960338;28;20043;-84
2021/08/14 07:49:48;;;;;;;6.32;2.30;;;;;;;21.74;52.61;101399.72;4961489;28;20173;-87
2021/08/14 07:52:15;;;;;;;4.97;2.08;;;;;;;21.76;52.29;101405.00;4947138;28;20522;-85
2021/08/14 07:54:44;;;;;;;7.72;2.58;;;;;;;21.78;52.42;101414.66;4930074;28;20055;-83
2021/08/14 07:57:18;;;;;;;6.18;2.67;;;;;;;21.91;52.49;101401.63;4934145;28;20047;-83
2021/08/14 07:59:45;;;;;;;5.00;2.28;;;;;;;22.10;52.28;101404.34;4945772;28;20425;-82
2021/08/14 08:02:11;;;;;;;5.03;2.72;;;;;;;22.28;51.80;101397.28;4941897;28;20051;-84
2021/08/14 08:04:38;;;;;;;7.95;2.58;;;;;;;22.29;51.63;101390.16;4944167;28;20134;-83
2021/08/14 08:07:05;;;;;;;5.53;2.20;;;;;;;22.36;51.56;101390.75;4943222;28;21567;-85
2021/08/14 08:09:31;;;;;;;6.40;2.40;;;;;;;22.51;51.38;101392.69;4941353;28;20130;-87
2021/08/14 08:11:58;;;;;;;8.35;3.05;;;;;;;22.64;51.43;101392.97;4926310;28;20062;-85
2021/08/14 08:14:24;;;;;;;6.20;2.55;;;;;;;22.60;51.43;101388.75;4928544;28;20615;-82
2021/08/14 08:16:51;;;;;;;9.13;4.32;;;;;;;22.61;51.56;101390.47;4941235;28;20506;-83
2021/08/14 08:19:18;;;;;;;5.15;2.47;;;;;;;22.82;51.56;101385.91;4930206;28;20142;-85
2021/08/14 08:21:45;;;;;;;6.55;2.53;;;;;;;23.69;48.46;101377.09;4945050;28;20047;-83
2021/08/14 08:24:11;;;;;;;4.85;2.55;;;;;;;24.63;46.87;101370.25;4930647;28;20182;-86
2021/08/14 08:26:38;;;;;;;7.57;2.70;;;;;;;25.63;43.77;101379.66;4945408;28;20051;-86
2021/08/14 08:29:05;;;;;;;6.43;2.55;;;;;;;26.66;41.50;101383.03;4944418;28;20082;-83
2021/08/14 08:31:32;;;;;;;7.65;2.85;;;;;;;27.43;39.71;101371.72;4955834;28;20149;-83
2021/08/14 08:34:00;;;;;;;5.47;2.30;;;;;;;27.81;39.37;101368.16;4930066;28;20058;-87
2021/08/14 08:36:27;;;;;;;5.07;2.15;;;;;;;28.35;38.08;101369.75;4957849;28;20125;-84
2021/08/14 08:38:53;;;;;;;8.57;3.30;;;;;;;28.61;37.51;101367.81;4941340;28;20150;-86
2021/08/14 08:41:21;;;;;;;5.97;3.00;;;;;;;28.97;36.54;101371.47;4956810;28;20042;-83
2021/08/14 08:43:49;;;;;;;7.18;3.83;;;;;;;29.16;35.66;101370.88;4933663;28;20437;-86
2021/08/14 08:46:19;;;;;;;8.88;3.35;;;;;;;29.61;35.07;101372.03;4943452;28;20050;-85
2021/08/14 08:48:51;;;;;;;7.80;2.95;;;;;;;30.09;33.77;101360.16;4941519;28;20146;-83
2021/08/14 08:51:30;;;;;;;8.35;3.95;;;;;;;30.33;32.34;101363.56;4963419;28;20051;-82
2021/08/14 08:53:57;;;;;;;9.25;4.65;;;;;;;30.58;32.74;101366.13;4960388;28;20105;-83
2021/08/14 08:56:24;;;;;;;11.85;4.38;;;;;;;30.48;32.54;101361.50;4959117;28;20492;-85
2021/08/14 08:58:50;;;;;;;7.75;3.88;;;;;;;30.06;32.45;101361.25;4944009;28;20129;-83
2021/08/14 09:01:17;;;;;;;9.48;4.30;;;;;;;29.41;33.27;101352.84;4942857;28;20505;-83
2021/08/14 09:03:44;;;;;;;9.38;4.10;;;;;;;29.25;33.70;101355.00;4943910;28;20138;-86
2021/08/14 09:06:11;;;;;;;7.80;3.30;;;;;;;29.30;32.72;101347.44;4943208;28;20074;-83
2021/08/14 09:08:37;;;;;;;9.77;4.22;;;;;;;28.49;34.01;101348.03;4960462;28;20047;-83
2021/08/14 09:11:13;;;;;;;10.63;3.50;;;;;;;28.16;35.42;101340.59;4942219;28;20058;-85
2021/08/14 09:14:05;;;;;;;8.95;4.05;;;;;;;27.61;35.99;101343.53;4942243;28;20057;-82
2021/08/14 09:16:32;;;;;;;6.65;3.22;;;;;;;27.22;36.94;101348.00;4925166;28;20593;-84
2021/08/14 09:19:01;;;;;;;10.10;4.07;;;;;;;26.74;37.78;101354.75;4957008;28;20142;-85
2021/08/14 09:21:35;;;;;;;10.93;4.82;;;;;;;26.60;38.38;101348.56;4958907;28;20401;-83
2021/08/14 09:24:05;;;;;;;7.40;3.63;;;;;;;26.50;38.75;101353.66;4956704;28;20097;-81
2021/08/14 09:26:54;;;;;;;9.80;3.97;;;;;;;26.31;39.32;101345.94;4928290;28;20050;-83
2021/08/14 09:29:37;;;;;;;5.40;3.63;;;;;;;26.21;39.02;101343.00;4956538;28;20058;-83
2021/08/14 09:32:08;;;;;;;7.32;3.25;;;;;;;26.36;39.22;101339.31;4925489;28;20047;-84
2021/08/14 09:34:44;;;;;;;8.60;4.07;;;;;;;26.40;38.86;101337.31;4942749;28;20054;-84
2021/08/14 09:37:16;;;;;;;5.40;2.83;;;;;;;26.47;37.91;101329.72;4958147;28;20528;-84
2021/08/14 09:40:01;;;;;;;4.90;3.28;;;;;;;26.44;37.06;101332.56;4925916;28;20078;-84
2021/08/14 09:42:29;;;;;;;4.57;2.35;;;;;;;26.87;36.59;101327.06;4943976;28;20050;-83
2021/08/14 09:45:16;;;;;;;8.80;2.83;;;;;;;27.70;34.94;101320.53;4958420;28;20046;-84
2021/08/14 09:47:46;;;;;;;9.10;2.85;;;;;;;28.55;33.19;101327.84;4940457;28;20066;-84
2021/08/14 09:50:14;;;;;;;6.00;2.97;;;;;;;29.51;33.18;101334.97;4956478;28;20128;-85
2021/08/14 09:52:41;;;;;;;6.88;2.80;;;;;;;30.90;30.76;101330.13;4955487;28;20086;-85
2021/08/14 09:55:23;;;;;;;6.22;2.80;;;;;;;30.84;30.28;101336.91;4958545;28;20137;-85
2021/08/14 09:58:00;;;;;;;9.88;3.70;;;;;;;31.37;30.12;101329.75;4925510;28;20781;-84
2021/08/14 10:00:30;;;;;;;11.20;3.20;;;;;;;32.38;28.60;101325.34;4942174;28;20053;-84
2021/08/14 10:03:00;;;;;;;8.68;3.47;;;;;;;32.74;27.97;101328.41;4942519;28;20138;-84
2021/08/14 10:05:30;;;;;;;8.30;2.97;;;;;;;33.04;27.18;101329.25;4928084;28;20071;-85
2021/08/14 10:07:57;;;;;;;5.40;3.40;;;;;;;32.99;27.13;101324.25;4928245;28;20047;-83
2021/08/14 10:10:23;;;;;;;5.95;3.38;;;;;;;33.44;26.81;101320.06;4944805;28;20093;-83
2021/08/14 10:12:51;;;;;;;5.70;3.22;;;;;;;34.16;26.02;101310.44;4944569;28;20074;-83
2021/08/14 10:15:18;;;;;;;11.27;3.78;;;;;;;34.50;25.19;101291.63;4929481;28;20053;-85
2021/08/14 10:17:45;;;;;;;7.57;2.85;;;;;;;34.36;25.52;101295.75;4942277;28;20046;-83
2021/08/14 10:20:12;;;;;;;4.38;2.50;;;;;;;34.19;24.66;101282.97;4927132;28;20055;-85
2021/08/14 10:22:39;;;;;;;6.45;3.05;;;;;;;33.42;25.62;101285.91;4943082;28;20137;-86
2021/08/14 10:25:06;;;;;;;4.43;2.90;;;;;;;33.69;24.78;101282.38;4927239;28;20078;-88
2021/08/14 10:27:56;;;;;;;5.55;3.35;;;;;;;33.23;24.15;101278.66;4956151;28;20047;-84
2021/08/14 10:30:52;;;;;;;7.22;2.63;;;;;;;33.80;24.24;101276.75;4942722;28;20050;-84
2021/08/14 10:33:28;;;;;;;9.40;2.70;;;;;;;34.86;23.35;101271.72;4941574;28;20162;-84
2021/08/14 10:36:19;;;;;;;4.25;2.78;;;;;;;34.73;22.25;101269.38;4958928;28;20057;-84
2021/08/14 10:38:51;;;;;;;3.00;2.08;;;;;;;35.39;22.16;101265.28;4943270;28;20074;-84
2021/08/14 10:41:19;;;;;;;4.03;2.53;;;;;;;35.81;22.06;101260.88;4928916;28;20047;-88
2021/08/14 10:44:03;;;;;;;6.03;3.10;;;;;;;35.70;20.71;101250.28;4944375;28;20393;-86
2021/08/14 10:46:32;;;;;;;9.30;2.78;;;;;;;34.58;21.25;101250.09;4915197;28;20607;-83
2021/08/14 10:49:00;;;;;;;4.35;2.75;;;;;;;34.59;21.71;101255.34;4978785;28;20129;-84
2021/08/14 10:51:48;;;;;;;3.75;2.50;;;;;;;34.95;20.58;101249.00;4976868;28;20058;-84
2021/08/14 10:54:33;;;;;;;7.05;3.17;;;;;;;35.05;20.42;101257.09;4948916;28;20055;-84
2021/08/14 10:57:06;;;;;;;5.32;2.50;;;;;;;35.50;20.61;101252.41;4962655;28;20138;-84
2021/08/14 10:59:38;;;;;;;4.70;2.63;;;;;;;35.91;19.80;101245.25;4947833;28;20055;-84
2021/08/14 11:02:08;;;;;;;5.30;2.95;;;;;;;36.10;20.04;101252.28;4963127;28;20094;-85
2021/08/14 11:04:43;;;;;;;6.15;3.22;;;;;;;35.48;20.27;101249.84;4974828;28;20055;-84
2021/08/14 11:07:18;;;;;;;6.55;2.97;;;;;;;35.49;20.24;101248.84;4945935;28;20050;-82
2021/08/14 11:10:01;;;;;;;4.57;2.95;;;;;;;35.71;20.38;101244.69;4960656;28;20047;-82
2021/08/14 11:12:40;;;;;;;5.63;3.45;;;;;;;35.42;20.17;101242.34;4962502;28;20038;-84
2021/08/14 11:15:38;;;;;;;4.40;3.05;;;;;;;34.56;20.48;101236.66;4961209;28;20493;-86
2021/08/14 11:18:06;;;;;;;4.70;2.92;;;;;;;35.13;20.66;101250.84;4959817;28;20061;-86
2021/08/14 11:20:40;;;;;;;4.85;2.92;;;;;;;35.34;20.94;101234.97;4930764;28;20043;-86
2021/08/14 11:23:29;;;;;;;4.78;3.20;;;;;;;35.90;19.94;101229.09;4934336;28;20051;-88
2021/08/14 11:25:56;;;;;;;6.90;3.10;;;;;;;36.03;20.41;101225.88;4944142;28;20059;-84
2021/08/14 11:28:26;;;;;;;5.53;3.10;;;;;;;35.71;20.36;101235.63;4943031;28;20066;-85
2021/08/14 11:31:05;;;;;;;4.35;3.22;;;;;;;36.53;19.62;101229.50;4944447;28;20046;-87